Nashville, Iowa
Current Conditions -  °F | °C
As of 1:24 AM on Saturday 25 Oct 2014 (Local Time) from KDBQ Reporting Station
Haze Haze  
Wind Chill: 58°   Ceiling: 800
Heat Index: 58°   Visibility: 3mi
Dew Point: 58°   Wind: 8mph
Humidity: 100%   Direction: 260°W
Pressure: 29.93"   Gusts: NA
Location:  42.12°N, 90.7234°W
Report Text: KDBQ 250624Z AUTO 26007KT 3SM BR OVC008 14/14 A2993 RMK AO2 CIG 004V011 T01440144
Loading
Personal Weather Stations






























Interactive Weather Map
Tropical Storm Tracking
New forecast layout! Learn more

10-Day Weather Forecast

Advertisements
Track Severe Weather on mobile